createdAt,value
2019-04-21T00:00:37.361Z,4.93
2019-04-21T00:03:15.162Z,4.53
2019-04-21T00:05:58.638Z,5.17
2019-04-21T00:11:05.994Z,5.13
2019-04-21T00:13:31.316Z,4.83
2019-04-21T00:15:48.828Z,4.67
2019-04-21T00:18:46.465Z,4.80
2019-04-21T00:21:16.223Z,4.47
2019-04-21T00:23:58.472Z,5.40
2019-04-21T00:26:31.724Z,4.47
2019-04-21T00:29:03.726Z,4.67
2019-04-21T00:31:28.623Z,5.13
2019-04-21T00:33:47.745Z,4.33
2019-04-21T00:36:22.659Z,4.30
2019-04-21T00:39:14.353Z,4.20
2019-04-21T00:41:36.724Z,4.40
2019-04-21T00:44:00.728Z,4.47
2019-04-21T00:46:37.245Z,4.70
2019-04-21T00:49:05.934Z,4.67
2019-04-21T00:51:54.122Z,4.73
2019-04-21T00:54:24.852Z,4.10
2019-04-21T00:56:58.704Z,4.20
2019-04-21T00:59:25.927Z,4.80
2019-04-21T01:01:55.599Z,4.33
2019-04-21T01:04:33.319Z,4.80
2019-04-21T01:06:54.425Z,4.90
2019-04-21T01:09:27.852Z,4.63
2019-04-21T01:12:01.296Z,4.30
2019-04-21T01:14:43.137Z,4.87
2019-04-21T01:17:05.013Z,4.70
2019-04-21T01:19:33.466Z,4.47
2019-04-21T01:21:46.425Z,4.70
2019-04-21T01:24:22.657Z,4.10
2019-04-21T01:26:59.583Z,4.03
2019-04-21T01:29:44.133Z,5.10
2019-04-21T01:32:12.882Z,4.30
2019-04-21T01:34:40.434Z,4.30
2019-04-21T01:37:04.094Z,5.33
2019-04-21T01:39:51.480Z,4.37
2019-04-21T01:42:15.898Z,4.40
2019-04-21T01:44:46.262Z,4.40
2019-04-21T01:47:13.134Z,4.30
2019-04-21T01:49:36.964Z,4.43
2019-04-21T01:52:24.066Z,4.37
2019-04-21T01:55:00.201Z,4.40
2019-04-21T01:57:52.609Z,4.43
2019-04-21T02:00:29.938Z,4.33
2019-04-21T02:03:09.758Z,4.77
2019-04-21T02:05:42.089Z,4.83
2019-04-21T02:08:01.136Z,4.40
2019-04-21T02:10:40.058Z,3.83
2019-04-21T02:13:03.558Z,4.03
2019-04-21T02:15:46.079Z,3.80
2019-04-21T02:18:08.952Z,3.93
2019-04-21T02:20:32.743Z,5.30
2019-04-21T02:23:26.388Z,4.30
2019-04-21T02:25:44.647Z,4.50
2019-04-21T02:28:20.789Z,4.10
2019-04-21T02:33:38.203Z,4.70
2019-04-21T02:38:53.018Z,4.57
2019-04-21T02:43:25.585Z,5.30
2019-04-21T02:46:04.326Z,4.03
2019-04-21T02:48:43.467Z,4.80
2019-04-21T02:51:03.981Z,5.50
2019-04-21T02:56:09.792Z,7.37
2019-04-21T03:01:50.350Z,7.27
2019-04-21T03:07:13.255Z,10.50
2019-04-21T03:09:41.018Z,8.03
2019-04-21T03:12:22.184Z,8.23
2019-04-21T03:14:58.571Z,8.63
2019-04-21T03:17:21.770Z,7.27
2019-04-21T03:19:51.366Z,7.83
2019-04-21T03:22:20.873Z,7.50
2019-04-21T03:27:30.798Z,7.43
2019-04-21T03:29:55.130Z,7.17
2019-04-21T03:39:59.313Z,9.80
2019-04-21T03:42:33.823Z,9.83
2019-04-21T03:45:03.652Z,10.70
2019-04-21T03:47:34.542Z,8.40
2019-04-21T03:50:27.351Z,7.83
2019-04-21T03:52:50.432Z,6.73
2019-04-21T03:58:16.918Z,5.83
2019-04-21T04:01:08.273Z,5.33
2019-04-21T04:07:04.046Z,4.13
2019-04-21T04:09:33.144Z,4.37
2019-04-21T04:11:50.865Z,4.50
2019-04-21T04:14:26.783Z,4.27
2019-04-21T04:17:11.863Z,3.97
2019-04-21T04:19:26.798Z,3.70
2019-04-21T04:27:05.284Z,4.33
2019-04-21T04:29:24.111Z,4.53
2019-04-21T04:32:00.787Z,3.87
2019-04-21T04:37:12.430Z,4.27
2019-04-21T04:45:08.357Z,4.23
2019-04-21T04:55:01.249Z,5.47
2019-04-21T04:57:33.903Z,4.70
2019-04-21T05:00:14.328Z,3.90
2019-04-21T05:09:59.885Z,6.13
2019-04-21T05:12:30.941Z,8.47
2019-04-21T05:22:51.851Z,7.47
2019-04-21T05:24:58.414Z,5.93
2019-04-21T05:27:38.062Z,5.43
2019-04-21T05:30:23.371Z,5.30
2019-04-21T05:33:00.901Z,5.37
2019-04-21T05:35:49.288Z,5.07
2019-04-21T05:38:27.288Z,4.63
2019-04-21T05:40:55.226Z,5.00
2019-04-21T05:43:32.526Z,5.13
2019-04-21T05:46:10.463Z,5.43
2019-04-21T05:48:39.206Z,4.93
2019-04-21T05:51:08.850Z,5.60
2019-04-21T05:53:50.546Z,11.03
2019-04-21T05:56:17.333Z,26.33
2019-04-21T05:58:50.926Z,31.37
2019-04-21T06:01:28.527Z,18.40
2019-04-21T06:06:26.423Z,11.83
2019-04-21T06:08:52.642Z,8.73
2019-04-21T06:11:29.015Z,6.83
2019-04-21T06:16:36.495Z,5.30
2019-04-21T06:19:29.402Z,5.53
2019-04-21T06:21:33.170Z,5.03
2019-04-21T06:24:05.212Z,4.93
2019-04-21T06:26:54.731Z,5.67
2019-04-21T06:29:10.166Z,5.90
2019-04-21T06:34:11.143Z,5.53
2019-04-21T06:39:28.048Z,5.10
2019-04-21T06:41:49.058Z,4.62
2019-04-21T06:44:20.344Z,5.35
2019-04-21T06:46:55.178Z,4.70
2019-04-21T06:49:28.104Z,4.35
2019-04-21T06:52:11.417Z,4.50
2019-04-21T06:54:34.206Z,4.92
2019-04-21T06:56:58.416Z,4.28
2019-04-21T06:59:32.004Z,4.40
2019-04-21T07:07:05.610Z,4.60
2019-04-21T07:09:36.416Z,4.20
2019-04-21T07:12:06.384Z,4.78
2019-04-21T07:14:53.309Z,3.92
2019-04-21T07:17:15.046Z,4.20
2019-04-21T07:22:12.719Z,4.37
2019-04-21T07:24:46.273Z,4.78
2019-04-21T07:27:20.629Z,4.50
2019-04-21T07:29:47.473Z,4.92
2019-04-21T07:32:15.352Z,4.60
2019-04-21T07:34:51.571Z,4.80
2019-04-21T07:37:17.374Z,4.83
2019-04-21T07:39:52.778Z,3.92
2019-04-21T07:42:17.442Z,5.12
2019-04-21T07:44:47.336Z,4.08
2019-04-21T07:47:26.757Z,4.58
2019-04-21T07:50:22.771Z,5.15
2019-04-21T07:52:50.510Z,5.15
2019-04-21T07:57:45.695Z,5.62
2019-04-21T08:02:54.424Z,4.70
2019-04-21T08:05:37.740Z,4.72
2019-04-21T08:07:57.094Z,4.70
2019-04-21T08:10:21.272Z,4.97
2019-04-21T08:12:58.298Z,5.30
2019-04-21T08:15:36.523Z,4.00
2019-04-21T08:17:59.606Z,5.37
2019-04-21T08:20:28.518Z,4.87
2019-04-21T08:23:04.946Z,5.15
2019-04-21T08:25:43.631Z,4.17
2019-04-21T08:28:05.297Z,5.15
2019-04-21T08:30:36.521Z,5.05
2019-04-21T08:33:16.161Z,5.33
2019-04-21T08:36:04.756Z,4.87
2019-04-21T08:38:13.888Z,5.00
2019-04-21T08:43:21.677Z,4.80
2019-04-21T08:45:49.764Z,4.65
2019-04-21T08:48:16.926Z,4.90
2019-04-21T08:50:58.655Z,5.20
2019-04-21T08:53:19.755Z,5.00
2019-04-21T08:56:18.485Z,5.22
2019-04-21T08:58:53.024Z,4.33
2019-04-21T09:01:43.061Z,4.05
2019-04-21T09:04:13.106Z,4.00
2019-04-21T09:07:05.329Z,4.28
2019-04-21T09:09:16.806Z,3.50
2019-04-21T09:11:47.165Z,4.58
2019-04-21T09:14:20.681Z,4.15
2019-04-21T09:16:47.537Z,4.05
2019-04-21T09:19:34.037Z,4.30
2019-04-21T09:21:57.818Z,3.60
2019-04-21T09:24:24.631Z,4.22
2019-04-21T09:26:53.671Z,4.10
2019-04-21T09:29:17.221Z,3.65
2019-04-21T09:31:41.785Z,4.03
2019-04-21T09:34:14.275Z,3.90
2019-04-21T09:36:46.735Z,3.75
2019-04-21T09:39:18.393Z,3.80
2019-04-21T09:41:45.014Z,3.70
2019-04-21T09:44:22.078Z,3.98
2019-04-21T09:46:50.737Z,3.45
2019-04-21T09:49:22.485Z,3.47
2019-04-21T09:51:48.369Z,2.98
2019-04-21T09:54:24.805Z,2.98
2019-04-21T09:56:54.971Z,3.10
2019-04-21T09:59:28.219Z,2.83
2019-04-21T10:02:05.642Z,3.10
2019-04-21T10:04:24.037Z,3.05
2019-04-21T10:06:54.437Z,3.27
2019-04-21T10:09:24.390Z,3.30
2019-04-21T10:11:54.886Z,2.85
2019-04-21T10:14:24.572Z,3.08
2019-04-21T10:17:13.246Z,3.05
2019-04-21T10:19:43.841Z,3.12
2019-04-21T10:22:14.830Z,2.62
2019-04-21T10:25:06.768Z,3.15
2019-04-21T10:27:36.951Z,3.00
2019-04-21T10:30:08.298Z,3.17
2019-04-21T10:32:38.590Z,3.05
2019-04-21T10:35:08.618Z,3.05
2019-04-21T10:37:49.893Z,3.90
2019-04-21T10:40:10.026Z,3.60
2019-04-21T10:42:40.431Z,3.52
2019-04-21T10:45:10.890Z,4.10
2019-04-21T10:47:41.024Z,4.30
2019-04-21T10:50:11.823Z,4.22
2019-04-21T10:53:20.740Z,4.17
2019-04-21T10:56:06.099Z,4.10
2019-04-21T10:58:34.174Z,5.00
2019-04-21T11:01:12.735Z,5.17
2019-04-21T11:03:53.147Z,4.65
2019-04-21T11:06:24.346Z,4.87
2019-04-21T11:08:55.718Z,4.50
2019-04-21T11:11:25.914Z,4.28
2019-04-21T11:13:56.814Z,4.30
2019-04-21T11:16:26.888Z,4.80
2019-04-21T11:18:57.798Z,4.83
2019-04-21T11:21:27.525Z,4.40
2019-04-21T11:23:58.327Z,5.00
2019-04-21T11:26:27.959Z,4.85
2019-04-21T11:28:58.904Z,4.80
2019-04-21T11:31:29.248Z,4.22
2019-04-21T11:33:58.973Z,4.92
2019-04-21T11:36:29.216Z,4.95
2019-04-21T11:39:31.620Z,4.00
2019-04-21T11:41:52.254Z,4.65
2019-04-21T11:44:24.645Z,4.50
2019-04-21T11:46:54.287Z,4.37
2019-04-21T11:49:24.552Z,4.78
2019-04-21T11:51:56.394Z,4.80
2019-04-21T11:54:26.787Z,4.47
2019-04-21T11:56:56.903Z,5.05
2019-04-21T11:59:27.903Z,4.75
2019-04-21T12:01:57.559Z,4.58
2019-04-21T12:04:27.513Z,4.80
2019-04-21T12:06:57.923Z,4.20
2019-04-21T12:09:27.746Z,4.15
2019-04-21T12:11:57.324Z,4.90
2019-04-21T12:14:27.980Z,4.72
2019-04-21T12:16:57.664Z,5.72
2019-04-21T12:19:30.550Z,4.65
2019-04-21T12:22:08.803Z,4.45
2019-04-21T12:24:36.213Z,4.20
2019-04-21T12:27:05.948Z,4.35
2019-04-21T12:29:35.632Z,5.12
2019-04-21T12:32:24.222Z,4.40
2019-04-21T12:34:55.239Z,5.42
2019-04-21T12:37:25.096Z,4.75
2019-04-21T12:39:54.821Z,3.67
2019-04-21T12:42:24.866Z,3.40
2019-04-21T12:44:55.120Z,4.15
2019-04-21T12:47:25.854Z,4.05
2019-04-21T12:49:56.913Z,4.67
2019-04-21T12:52:27.373Z,4.67
2019-04-21T12:54:57.593Z,4.50
2019-04-21T12:57:28.705Z,4.80
2019-04-21T12:59:58.426Z,3.98
2019-04-21T13:02:27.940Z,4.15
2019-04-21T13:04:57.810Z,4.47
2019-04-21T13:07:27.747Z,4.20
2019-04-21T13:09:58.080Z,4.67
2019-04-21T13:12:28.896Z,4.15
2019-04-21T13:14:59.578Z,4.37
2019-04-21T13:17:31.004Z,4.75
2019-04-21T13:20:01.225Z,4.42
2019-04-21T13:22:31.999Z,3.80
2019-04-21T13:25:02.390Z,4.62
2019-04-21T13:27:32.250Z,4.50
2019-04-21T13:30:02.209Z,4.42
2019-04-21T13:32:33.109Z,4.67
2019-04-21T13:35:03.314Z,5.37
2019-04-21T13:37:33.414Z,5.17
2019-04-21T13:40:45.045Z,5.53
2019-04-21T13:43:02.871Z,5.35
2019-04-21T13:45:32.205Z,5.42
2019-04-21T13:48:04.436Z,4.78
2019-04-21T13:50:35.299Z,4.33
2019-04-21T13:53:05.035Z,4.75
2019-04-21T13:55:36.887Z,4.15
2019-04-21T13:58:06.375Z,3.55
2019-04-21T14:00:36.027Z,3.67
2019-04-21T14:03:06.946Z,4.90
2019-04-21T14:05:38.122Z,4.83
2019-04-21T14:08:09.153Z,4.50
2019-04-21T14:10:41.816Z,4.90
2019-04-21T14:13:12.156Z,4.30
2019-04-21T14:15:42.088Z,4.12
2019-04-21T14:18:13.073Z,4.45
2019-04-21T14:20:42.966Z,4.10
2019-04-21T14:23:22.472Z,4.00
2019-04-21T14:25:43.899Z,3.83
2019-04-21T14:28:14.196Z,3.70
2019-04-21T14:30:46.031Z,3.70
2019-04-21T14:33:16.153Z,4.15
2019-04-21T14:35:47.022Z,3.58
2019-04-21T14:38:16.727Z,3.45
2019-04-21T14:40:46.258Z,3.40
2019-04-21T14:43:16.467Z,4.00
2019-04-21T14:46:06.381Z,4.30
2019-04-21T14:48:54.963Z,4.47
2019-04-21T14:51:52.949Z,3.77
2019-04-21T14:54:42.662Z,3.70
2019-04-21T14:57:13.481Z,4.03
2019-04-21T14:59:43.117Z,3.65
2019-04-21T15:02:14.344Z,4.10
2019-04-21T15:04:43.999Z,4.22
2019-04-21T15:07:13.522Z,4.03
2019-04-21T15:09:44.599Z,3.55
2019-04-21T15:12:14.218Z,3.62
2019-04-21T15:14:44.153Z,4.97
2019-04-21T15:17:16.333Z,4.30
2019-04-21T15:19:50.923Z,4.60
2019-04-21T15:22:16.467Z,3.62
2019-04-21T15:24:46.046Z,4.25
2019-04-21T15:27:16.787Z,3.95
2019-04-21T15:29:46.839Z,3.70
2019-04-21T15:32:16.901Z,4.20
2019-04-21T15:34:47.730Z,3.85
2019-04-21T15:37:17.873Z,4.28
2019-04-21T15:39:48.753Z,4.15
2019-04-21T15:42:18.644Z,4.20
2019-04-21T15:44:48.480Z,3.77
2019-04-21T15:47:18.101Z,3.55
2019-04-21T15:50:03.661Z,3.52
2019-04-21T15:52:29.803Z,3.17
2019-04-21T15:55:12.328Z,3.40
2019-04-21T15:58:04.819Z,3.05
2019-04-21T16:00:40.815Z,3.45
2019-04-21T16:03:10.851Z,3.42
2019-04-21T16:05:40.626Z,4.17
2019-04-21T16:08:10.362Z,3.67
2019-04-21T16:10:47.142Z,3.42
2019-04-21T16:13:11.825Z,3.30
2019-04-21T16:15:41.415Z,3.55
2019-04-21T16:18:12.167Z,3.50
2019-04-21T16:20:41.899Z,3.72
2019-04-21T16:23:12.811Z,3.42
2019-04-21T16:25:44.309Z,3.47
2019-04-21T16:28:15.340Z,3.02
2019-04-21T16:30:52.122Z,3.95
2019-04-21T16:33:23.147Z,3.00
2019-04-21T16:35:53.772Z,3.20
2019-04-21T16:38:23.669Z,2.85
2019-04-21T16:40:58.235Z,2.92
2019-04-21T16:43:24.969Z,3.30
2019-04-21T16:45:57.466Z,2.72
2019-04-21T16:48:27.340Z,3.52
2019-04-21T16:50:57.496Z,3.00
2019-04-21T16:53:35.348Z,3.10
2019-04-21T16:56:11.000Z,2.87
2019-04-21T16:58:48.315Z,3.33
2019-04-21T17:01:24.227Z,2.77
2019-04-21T17:03:54.680Z,3.25
2019-04-21T17:06:24.959Z,2.50
2019-04-21T17:08:54.716Z,2.98
2019-04-21T17:11:29.458Z,2.45
2019-04-21T17:13:56.549Z,4.30
2019-04-21T17:16:48.251Z,3.65
2019-04-21T17:19:09.157Z,3.20
2019-04-21T17:21:30.094Z,2.95
2019-04-21T17:23:59.694Z,2.90
2019-04-21T17:26:29.222Z,2.92
2019-04-21T17:28:58.861Z,2.92
2019-04-21T17:31:28.818Z,3.00
2019-04-21T17:34:06.346Z,2.67
2019-04-21T17:36:29.625Z,2.83
2019-04-21T17:39:00.131Z,3.08
2019-04-21T17:41:36.431Z,2.85
2019-04-21T17:44:02.429Z,2.55
2019-04-21T17:46:40.785Z,2.85
2019-04-21T17:49:03.286Z,3.02
2019-04-21T17:51:54.602Z,2.62
2019-04-21T17:54:35.682Z,2.42
2019-04-21T17:57:24.577Z,2.83
2019-04-21T17:59:56.890Z,2.80
2019-04-21T18:02:22.947Z,2.60
2019-04-21T18:04:58.889Z,3.40
2019-04-21T18:07:27.333Z,3.58
2019-04-21T18:10:04.352Z,3.08
2019-04-21T18:12:33.555Z,2.83
2019-04-21T18:15:01.417Z,3.52
2019-04-21T18:17:20.901Z,2.72
2019-04-21T18:19:51.836Z,2.83
2019-04-21T18:22:54.934Z,2.70
2019-04-21T18:25:40.326Z,2.50
2019-04-21T18:27:57.042Z,2.35
2019-04-21T18:30:40.717Z,2.62
2019-04-21T18:33:14.173Z,2.55
2019-04-21T18:36:02.282Z,2.37
2019-04-21T18:39:12.680Z,2.30
2019-04-21T18:41:42.704Z,3.00
2019-04-21T18:47:16.383Z,4.12
2019-04-21T18:49:43.731Z,6.53
2019-04-21T18:52:26.736Z,6.70
2019-04-21T18:55:01.433Z,7.50
2019-04-21T18:57:30.578Z,10.82
2019-04-21T18:59:53.298Z,8.95
2019-04-21T19:02:24.442Z,7.65
2019-04-21T19:05:00.206Z,5.83
2019-04-21T19:07:45.231Z,5.60
2019-04-21T19:13:16.001Z,4.72
2019-04-21T19:15:17.132Z,4.62
2019-04-21T19:18:24.086Z,4.20
2019-04-21T19:20:26.845Z,4.33
2019-04-21T19:22:47.677Z,4.58
2019-04-21T19:25:20.640Z,4.37
2019-04-21T19:27:51.634Z,4.33
2019-04-21T19:30:38.419Z,4.20
2019-04-21T19:32:58.369Z,4.22
2019-04-21T19:35:14.939Z,4.92
2019-04-21T19:37:54.003Z,4.62
2019-04-21T19:40:34.043Z,4.40
2019-04-21T19:43:00.948Z,3.72
2019-04-21T19:45:36.793Z,4.05
2019-04-21T19:48:15.321Z,3.58
2019-04-21T19:50:46.714Z,3.65
2019-04-21T19:53:07.467Z,3.47
2019-04-21T19:55:29.829Z,4.20
2019-04-21T19:58:00.856Z,4.08
2019-04-21T20:00:34.651Z,4.37
2019-04-21T20:03:04.429Z,4.03
2019-04-21T20:05:42.989Z,3.92
2019-04-21T20:08:22.202Z,4.33
2019-04-21T20:10:58.089Z,4.92
2019-04-21T20:13:42.906Z,4.67
2019-04-21T20:15:58.310Z,5.17
2019-04-21T20:18:21.242Z,5.83
2019-04-21T20:20:43.731Z,4.70
2019-04-21T20:23:16.943Z,5.95
2019-04-21T20:25:54.372Z,6.45
2019-04-21T20:28:33.134Z,7.12
2019-04-21T20:31:06.690Z,5.62
2019-04-21T20:36:15.000Z,6.25
2019-04-21T20:38:32.721Z,6.08
2019-04-21T20:41:02.210Z,6.10
2019-04-21T20:43:42.639Z,5.78
2019-04-21T20:46:12.267Z,5.03
2019-04-21T20:48:42.163Z,5.75
2019-04-21T20:51:18.313Z,5.35
2019-04-21T20:53:46.456Z,5.10
2019-04-21T20:56:12.986Z,5.00
2019-04-21T20:58:53.877Z,5.42
2019-04-21T21:01:30.800Z,5.22
2019-04-21T21:03:48.961Z,5.15
2019-04-21T21:06:21.717Z,5.30
2019-04-21T21:08:56.885Z,5.15
2019-04-21T21:11:26.143Z,5.45
2019-04-21T21:14:00.388Z,4.78
2019-04-21T21:16:35.075Z,6.10
2019-04-21T21:19:13.388Z,4.97
2019-04-21T21:21:29.537Z,5.15
2019-04-21T21:24:05.404Z,5.58
2019-04-21T21:26:36.906Z,5.28
2019-04-21T21:29:04.894Z,5.28
2019-04-21T21:31:41.477Z,5.08
2019-04-21T21:34:27.861Z,4.50
2019-04-21T21:37:08.652Z,4.60
2019-04-21T21:39:41.158Z,5.33
2019-04-21T21:41:55.173Z,4.78
2019-04-21T21:44:22.902Z,4.42
2019-04-21T21:47:00.471Z,4.97
2019-04-21T21:49:40.905Z,5.25
2019-04-21T21:52:06.703Z,5.35
2019-04-21T21:54:29.714Z,5.20
2019-04-21T21:57:00.558Z,5.08
2019-04-21T21:59:33.627Z,5.70
2019-04-21T22:02:03.162Z,6.35
2019-04-21T22:04:35.591Z,6.83
2019-04-21T22:07:11.195Z,7.95
2019-04-21T22:09:36.527Z,7.33
2019-04-21T22:12:10.992Z,6.92
2019-04-21T22:14:47.948Z,8.28
2019-04-21T22:17:31.537Z,7.75
2019-04-21T22:20:08.515Z,8.18
2019-04-21T22:22:32.761Z,7.40
2019-04-21T22:24:59.414Z,8.18
2019-04-21T22:27:21.475Z,7.37
2019-04-21T22:29:55.042Z,7.93
2019-04-21T22:32:27.534Z,9.25
2019-04-21T22:34:58.344Z,9.20
2019-04-21T22:37:39.141Z,7.70
2019-04-21T22:40:11.318Z,7.63
2019-04-21T22:42:33.097Z,8.18
2019-04-21T22:44:58.588Z,9.05
2019-04-21T22:47:32.598Z,10.05
2019-04-21T22:49:59.435Z,10.67
2019-04-21T22:52:30.502Z,11.20
2019-04-21T22:55:07.480Z,10.98
2019-04-21T22:57:36.509Z,12.63
2019-04-21T23:00:07.901Z,15.07
2019-04-21T23:02:36.788Z,17.53
2019-04-21T23:05:07.998Z,16.13
2019-04-21T23:07:44.141Z,18.53
2019-04-21T23:10:09.432Z,12.80
2019-04-21T23:12:42.105Z,16.03
2019-04-21T23:15:19.054Z,13.13
2019-04-21T23:18:04.757Z,12.60
2019-04-21T23:20:39.408Z,14.13
2019-04-21T23:23:14.966Z,11.97
2019-04-21T23:25:39.232Z,12.37
2019-04-21T23:28:09.243Z,10.17
2019-04-21T23:30:45.775Z,10.70
2019-04-21T23:32:59.667Z,9.90
2019-04-21T23:35:32.279Z,10.47
2019-04-21T23:38:01.595Z,8.53
2019-04-21T23:40:27.845Z,9.33
2019-04-21T23:43:00.064Z,8.37
2019-04-21T23:45:35.834Z,9.83
2019-04-21T23:48:15.652Z,9.27
2019-04-21T23:50:42.829Z,8.57
2019-04-21T23:53:03.615Z,9.00
2019-04-21T23:55:33.229Z,11.23
2019-04-21T23:58:08.801Z,9.73
